Byers, Texas
Current Conditions -  °F | °C
As of 11:52 PM on Sunday 21 Dec 2014 (Local Time) from KSPS Reporting Station
Clear Clear  
Wind Chill: 10°   Ceiling: Unl
Heat Index: 10°   Visibility: 10mi
Dew Point:   Wind: 16mph
Humidity: 83%   Direction: 170°S
Pressure: 29.58"   Gusts: NA
Location:  34.07°N, 98.19°W
Report Text: KSPS 220552Z AUTO 17014KT 10SM CLR 10/07 A2958 RMK AO2 SLP015 T01000072 10106 20094 401330050 56024 TSNO $
Loading
Personal Weather Stations






























Interactive Weather Map New forecast layout! Learn more

10-Day Weather Forecast

Advertisements
Track Severe Weather on mobile